sensor_id;sensor_type;location;lat;lon;timestamp;pressure;altitude;pressure_sealevel;temperature;humidity
73105;BME280;61296;50.526;30.792;2024-03-23T00:54:12;99128.09;;;5.34;85.92
73105;BME280;61296;50.526;30.792;2024-03-23T01:09:45;99105.72;;;5.13;86.61
73105;BME280;61296;50.526;30.792;2024-03-23T01:25:18;98992.75;;;4.51;87.35
73105;BME280;61296;50.526;30.792;2024-03-23T01:40:56;98999.06;;;4.55;87.71
73105;BME280;61296;50.526;30.792;2024-03-23T01:56:32;99111.19;;;5.29;88.35
73105;BME280;61296;50.526;30.792;2024-03-23T02:12:09;99047.66;;;4.97;88.77
73105;BME280;61296;50.526;30.792;2024-03-23T02:27:43;98963.47;;;4.48;89.08
73105;BME280;61296;50.526;30.792;2024-03-23T02:43:16;99013.25;;;4.76;90.42
73105;BME280;61296;50.526;30.792;2024-03-23T02:58:49;98988.50;;;4.81;90.59
73105;BME280;61296;50.526;30.792;2024-03-23T03:14:22;98965.28;;;4.72;91.77
73105;BME280;61296;50.526;30.792;2024-03-23T03:29:55;99036.53;;;5.33;92.18
73105;BME280;61296;50.526;30.792;2024-03-23T03:45:28;98940.66;;;4.68;92.82
73105;BME280;61296;50.526;30.792;2024-03-23T04:01:01;98971.28;;;4.93;93.41
73105;BME280;61296;50.526;30.792;2024-03-23T04:16:34;98934.63;;;4.90;94.61
73105;BME280;61296;50.526;30.792;2024-03-23T04:32:08;98910.88;;;4.75;95.80
73105;BME280;61296;50.526;30.792;2024-03-23T04:47:41;98930.91;;;4.99;96.70
73105;BME280;61296;50.526;30.792;2024-03-23T05:03:14;98946.69;;;5.56;95.90
73105;BME280;61296;50.526;30.792;2024-03-23T05:18:48;98856.91;;;5.12;96.12
73105;BME280;61296;50.526;30.792;2024-03-23T05:34:20;98914.75;;;5.76;96.16
73105;BME280;61296;50.526;30.792;2024-03-23T05:49:54;98959.69;;;6.17;96.49
73105;BME280;61296;50.526;30.792;2024-03-23T06:05:27;98897.53;;;6.11;95.57
73105;BME280;61296;50.526;30.792;2024-03-23T06:21:00;98902.75;;;6.39;95.15
73105;BME280;61296;50.526;30.792;2024-03-23T06:36:34;98918.22;;;6.77;94.91
73105;BME280;61296;50.526;30.792;2024-03-23T06:52:07;98878.72;;;6.71;94.25
73105;BME280;61296;50.526;30.792;2024-03-23T07:07:40;98893.94;;;6.94;94.55
73105;BME280;61296;50.526;30.792;2024-03-23T07:23:13;98936.63;;;7.52;94.34
73105;BME280;61296;50.526;30.792;2024-03-23T07:38:46;98893.03;;;7.66;92.57
73105;BME280;61296;50.526;30.792;2024-03-23T07:54:19;98874.25;;;7.98;90.47
73105;BME280;61296;50.526;30.792;2024-03-23T08:09:54;98930.78;;;8.47;89.69
73105;BME280;61296;50.526;30.792;2024-03-23T08:25:36;98930.69;;;8.77;88.78
73105;BME280;61296;50.526;30.792;2024-03-23T08:41:10;98798.97;;;8.19;87.51
73105;BME280;61296;50.526;30.792;2024-03-23T08:56:43;98894.22;;;9.21;86.72
73105;BME280;61296;50.526;30.792;2024-03-23T09:12:16;98756.41;;;8.76;84.43
73105;BME280;61296;50.526;30.792;2024-03-23T09:27:50;98863.19;;;9.90;82.85
73105;BME280;61296;50.526;30.792;2024-03-23T09:43:23;98788.56;;;9.59;82.69
73105;BME280;61296;50.526;30.792;2024-03-23T09:59:02;98709.31;;;9.54;81.73
73105;BME280;61296;50.526;30.792;2024-03-23T10:14:35;98743.53;;;9.99;80.75
73105;BME280;61296;50.526;30.792;2024-03-23T10:30:10;98807.59;;;10.89;79.18
73105;BME280;61296;50.526;30.792;2024-03-23T10:45:43;98719.59;;;10.71;76.77
73105;BME280;61296;50.526;30.792;2024-03-23T11:01:16;98667.69;;;10.94;75.13
73105;BME280;61296;50.526;30.792;2024-03-23T11:17:08;98600.88;;;10.94;73.24
73105;BME280;61296;50.526;30.792;2024-03-23T11:32:43;98595.56;;;11.32;72.28
73105;BME280;61296;50.526;30.792;2024-03-23T11:48:18;98617.03;;;11.54;71.96
73105;BME280;61296;50.526;30.792;2024-03-23T12:03:51;98627.47;;;11.88;72.43
73105;BME280;61296;50.526;30.792;2024-03-23T12:19:24;98641.91;;;12.03;72.42
73105;BME280;61296;50.526;30.792;2024-03-23T12:35:00;98647.59;;;12.26;72.22
73105;BME280;61296;50.526;30.792;2024-03-23T12:50:34;98644.53;;;12.58;71.93
73105;BME280;61296;50.526;30.792;2024-03-23T13:06:13;98594.94;;;12.13;69.95
73105;BME280;61296;50.526;30.792;2024-03-23T13:21:46;98576.38;;;11.80;71.37
73105;BME280;61296;50.526;30.792;2024-03-23T13:37:19;98531.28;;;11.56;71.92
73105;BME280;61296;50.526;30.792;2024-03-23T13:52:52;98551.91;;;11.85;73.12
73105;BME280;61296;50.526;30.792;2024-03-23T14:08:25;98577.88;;;11.88;72.67
73105;BME280;61296;50.526;30.792;2024-03-23T14:23:58;98599.44;;;11.97;72.53
73105;BME280;61296;50.526;30.792;2024-03-23T14:39:34;98510.28;;;11.28;74.93
73105;BME280;61296;50.526;30.792;2024-03-23T14:55:14;98588.91;;;11.88;75.18
73105;BME280;61296;50.526;30.792;2024-03-23T15:10:49;98474.13;;;11.26;75.50
73105;BME280;61296;50.526;30.792;2024-03-23T15:26:22;98426.75;;;11.01;75.05
73105;BME280;61296;50.526;30.792;2024-03-23T15:41:55;98512.34;;;11.62;74.91
73105;BME280;61296;50.526;30.792;2024-03-23T15:57:21;98418.94;;;10.95;75.84
73105;BME280;61296;50.526;30.792;2024-03-23T16:12:54;98485.84;;;11.34;76.55
73105;BME280;61296;50.526;30.792;2024-03-23T16:28:32;98492.88;;;11.38;77.58
73105;BME280;61296;50.526;30.792;2024-03-23T16:44:05;98468.28;;;11.13;77.97
73105;BME280;61296;50.526;30.792;2024-03-23T16:59:38;98537.19;;;11.54;78.17
73105;BME280;61296;50.526;30.792;2024-03-23T17:15:11;98467.59;;;11.06;78.10
73105;BME280;61296;50.526;30.792;2024-03-23T17:30:38;98545.13;;;11.49;80.82
73105;BME280;61296;50.526;30.792;2024-03-23T17:46:14;98441.38;;;10.83;82.99
73105;BME280;61296;50.526;30.792;2024-03-23T18:01:47;98469.94;;;11.07;83.98
73105;BME280;61296;50.526;30.792;2024-03-23T18:17:20;98458.56;;;11.02;84.16
73105;BME280;61296;50.526;30.792;2024-03-23T18:32:53;98503.94;;;11.31;83.43
73105;BME280;61296;50.526;30.792;2024-03-23T18:48:26;98453.22;;;10.80;85.21
73105;BME280;61296;50.526;30.792;2024-03-23T19:03:59;98472.91;;;10.72;88.54
73105;BME280;61296;50.526;30.792;2024-03-23T19:19:33;98374.63;;;10.17;87.41
73105;BME280;61296;50.526;30.792;2024-03-23T19:35:07;98486.97;;;10.88;87.80
73105;BME280;61296;50.526;30.792;2024-03-23T19:50:40;98465.97;;;10.53;88.29
73105;BME280;61296;50.526;30.792;2024-03-23T20:06:15;98422.97;;;9.96;93.02
73105;BME280;61296;50.526;30.792;2024-03-23T20:21:49;98465.72;;;10.04;96.00
73105;BME280;61296;50.526;30.792;2024-03-23T20:37:24;98390.97;;;9.43;97.93
73105;BME280;61296;50.526;30.792;2024-03-23T20:52:59;98376.91;;;8.95;100.00
73105;BME280;61296;50.526;30.792;2024-03-23T21:08:34;98463.84;;;9.59;100.00
73105;BME280;61296;50.526;30.792;2024-03-23T21:24:07;98451.59;;;9.99;100.00
73105;BME280;61296;50.526;30.792;2024-03-23T21:39:40;98387.38;;;9.64;100.00
73105;BME280;61296;50.526;30.792;2024-03-23T21:55:14;98409.22;;;10.03;99.18
73105;BME280;61296;50.526;30.792;2024-03-23T22:10:47;98285.94;;;9.36;97.41
73105;BME280;61296;50.526;30.792;2024-03-23T22:26:20;98341.84;;;9.77;96.07
73105;BME280;61296;50.526;30.792;2024-03-23T22:41:53;98362.63;;;9.78;95.07
73105;BME280;61296;50.526;30.792;2024-03-23T22:57:26;98281.63;;;9.35;94.41
73105;BME280;61296;50.526;30.792;2024-03-23T23:12:59;98296.06;;;9.53;92.90
73105;BME280;61296;50.526;30.792;2024-03-23T23:28:32;98208.84;;;9.09;89.50
73105;BME280;61296;50.526;30.792;2024-03-23T23:44:05;98179.41;;;9.16;88.28
73105;BME280;61296;50.526;30.792;2024-03-23T23:59:38;98182.84;;;9.38;88.78
